sensor_id;sensor_type;location;lat;lon;timestamp;pressure;altitude;pressure_sealevel;temperature;humidity
6136;BME280;24008;42.664;23.372;2023-09-19T00:01:51;95138.22;;;16.13;78.25
6136;BME280;24008;42.664;23.372;2023-09-19T00:04:19;95136.94;;;16.09;78.20
6136;BME280;24008;42.664;23.372;2023-09-19T00:06:49;95114.59;;;15.85;78.94
6136;BME280;24008;42.664;23.372;2023-09-19T00:09:15;95143.75;;;16.02;79.26
6136;BME280;24008;42.664;23.372;2023-09-19T00:11:42;95139.88;;;15.98;79.59
6136;BME280;24008;42.664;23.372;2023-09-19T00:14:09;95120.38;;;15.88;79.84
6136;BME280;24008;42.664;23.372;2023-09-19T00:16:40;95032.97;;;15.37;79.67
6136;BME280;24008;42.664;23.372;2023-09-19T00:19:07;95102.69;;;15.76;79.94
6136;BME280;24008;42.664;23.372;2023-09-19T00:21:35;95124.72;;;15.95;80.46
6136;BME280;24008;42.664;23.372;2023-09-19T00:24:04;95098.69;;;15.66;80.39
6136;BME280;24008;42.664;23.372;2023-09-19T00:26:32;95073.38;;;15.53;80.62
6136;BME280;24008;42.664;23.372;2023-09-19T00:28:59;95079.50;;;15.52;80.78
6136;BME280;24008;42.664;23.372;2023-09-19T00:31:30;95069.84;;;15.38;81.25
6136;BME280;24008;42.664;23.372;2023-09-19T00:33:57;95135.25;;;15.69;81.61
6136;BME280;24008;42.664;23.372;2023-09-19T00:36:27;95127.31;;;15.71;82.05
6136;BME280;24008;42.664;23.372;2023-09-19T00:38:56;95131.84;;;15.69;82.44
6136;BME280;24008;42.664;23.372;2023-09-19T00:41:22;95089.63;;;15.54;82.70
6136;BME280;24008;42.664;23.372;2023-09-19T00:43:50;95099.94;;;15.54;82.73
6136;BME280;24008;42.664;23.372;2023-09-19T00:46:17;95121.53;;;15.61;84.01
6136;BME280;24008;42.664;23.372;2023-09-19T00:48:44;95123.94;;;15.54;84.68
6136;BME280;24008;42.664;23.372;2023-09-19T00:51:12;95120.88;;;15.50;85.18
6136;BME280;24008;42.664;23.372;2023-09-19T00:53:40;95108.81;;;15.43;85.23
6136;BME280;24008;42.664;23.372;2023-09-19T00:56:13;95082.06;;;15.20;85.96
6136;BME280;24008;42.664;23.372;2023-09-19T00:58:40;95114.59;;;15.37;85.91
6136;BME280;24008;42.664;23.372;2023-09-19T01:01:07;95113.94;;;15.35;85.93
6136;BME280;24008;42.664;23.372;2023-09-19T01:03:34;95032.97;;;14.81;86.51
6136;BME280;24008;42.664;23.372;2023-09-19T01:06:02;95112.97;;;15.36;86.43
6136;BME280;24008;42.664;23.372;2023-09-19T01:08:29;95022.81;;;14.79;86.15
6136;BME280;24008;42.664;23.372;2023-09-19T01:10:59;95087.84;;;15.22;86.50
6136;BME280;24008;42.664;23.372;2023-09-19T01:13:34;95123.13;;;15.37;86.64
6136;BME280;24008;42.664;23.372;2023-09-19T01:16:19;95119.44;;;15.32;86.83
6136;BME280;24008;42.664;23.372;2023-09-19T01:18:52;95117.16;;;15.29;86.99
6136;BME280;24008;42.664;23.372;2023-09-19T01:21:27;95113.94;;;15.27;87.20
6136;BME280;24008;42.664;23.372;2023-09-19T01:27:17;95113.28;;;15.17;88.42
6136;BME280;24008;42.664;23.372;2023-09-19T01:30:01;95131.16;;;15.18;88.68
6136;BME280;24008;42.664;23.372;2023-09-19T01:32:29;95119.56;;;15.14;88.96
6136;BME280;24008;42.664;23.372;2023-09-19T01:34:58;95113.91;;;15.10;89.37
6136;BME280;24008;42.664;23.372;2023-09-19T01:37:29;95114.56;;;15.04;89.75
6136;BME280;24008;42.664;23.372;2023-09-19T01:39:58;95120.34;;;15.06;89.88
6136;BME280;24008;42.664;23.372;2023-09-19T01:42:37;95087.16;;;14.87;89.78
6136;BME280;24008;42.664;23.372;2023-09-19T01:45:12;95086.84;;;14.90;89.95
6136;BME280;24008;42.664;23.372;2023-09-19T01:47:52;95081.72;;;14.90;90.03
6136;BME280;24008;42.664;23.372;2023-09-19T01:50:29;95083.97;;;14.93;90.21
6136;BME280;24008;42.664;23.372;2023-09-19T01:53:00;95103.31;;;15.05;90.30
6136;BME280;24008;42.664;23.372;2023-09-19T01:55:30;95071.41;;;14.82;89.58
6136;BME280;24008;42.664;23.372;2023-09-19T01:58:01;95088.47;;;14.91;89.99
6136;BME280;24008;42.664;23.372;2023-09-19T02:00:32;95103.94;;;15.07;90.05
6136;BME280;24008;42.664;23.372;2023-09-19T02:03:00;95091.53;;;14.95;89.49
6136;BME280;24008;42.664;23.372;2023-09-19T02:05:28;95133.22;;;15.06;89.82
6136;BME280;24008;42.664;23.372;2023-09-19T02:07:58;95120.66;;;15.03;89.75
6136;BME280;24008;42.664;23.372;2023-09-19T02:10:26;95100.38;;;14.92;90.25
6136;BME280;24008;42.664;23.372;2023-09-19T02:12:53;95114.09;;;15.09;90.17
6136;BME280;24008;42.664;23.372;2023-09-19T02:15:20;95115.88;;;15.08;89.97
6136;BME280;24008;42.664;23.372;2023-09-19T02:17:49;95065.63;;;14.80;90.05
6136;BME280;24008;42.664;23.372;2023-09-19T02:20:14;95014.41;;;14.45;89.85
6136;BME280;24008;42.664;23.372;2023-09-19T02:22:42;95116.19;;;15.05;89.74
6136;BME280;24008;42.664;23.372;2023-09-19T02:25:09;95087.97;;;14.88;90.42
6136;BME280;24008;42.664;23.372;2023-09-19T02:27:41;95116.19;;;15.05;89.79
6136;BME280;24008;42.664;23.372;2023-09-19T02:30:08;95088.78;;;14.88;89.93
6136;BME280;24008;42.664;23.372;2023-09-19T02:32:35;95002.28;;;14.29;90.62
6136;BME280;24008;42.664;23.372;2023-09-19T02:35:07;95100.38;;;14.92;91.11
6136;BME280;24008;42.664;23.372;2023-09-19T02:37:36;95057.22;;;14.70;91.27
6136;BME280;24008;42.664;23.372;2023-09-19T02:40:04;95047.25;;;14.59;91.17
6136;BME280;24008;42.664;23.372;2023-09-19T02:42:32;95110.31;;;14.87;90.96
6136;BME280;24008;42.664;23.372;2023-09-19T02:44:58;95047.72;;;14.62;91.49
6136;BME280;24008;42.664;23.372;2023-09-19T02:47:25;95062.06;;;14.73;91.57
6136;BME280;24008;42.664;23.372;2023-09-19T02:49:53;95064.97;;;14.70;91.70
6136;BME280;24008;42.664;23.372;2023-09-19T02:52:22;95030.50;;;14.55;91.80
6136;BME280;24008;42.664;23.372;2023-09-19T02:54:50;95083.97;;;14.85;92.45
6136;BME280;24008;42.664;23.372;2023-09-19T02:57:17;95042.75;;;14.61;92.26
6136;BME280;24008;42.664;23.372;2023-09-19T02:59:45;95071.72;;;14.79;92.27
6136;BME280;24008;42.664;23.372;2023-09-19T03:02:12;95069.97;;;14.80;92.46
6136;BME280;24008;42.664;23.372;2023-09-19T03:04:39;95032.78;;;14.58;92.42
6136;BME280;24008;42.664;23.372;2023-09-19T03:07:06;95040.81;;;14.63;92.82
6136;BME280;24008;42.664;23.372;2023-09-19T03:09:34;94992.66;;;14.31;92.92
6136;BME280;24008;42.664;23.372;2023-09-19T03:12:01;95066.22;;;14.74;92.74
6136;BME280;24008;42.664;23.372;2023-09-19T03:14:29;95055.63;;;14.77;92.80
6136;BME280;24008;42.664;23.372;2023-09-19T03:17:00;95064.66;;;14.73;92.48
6136;BME280;24008;42.664;23.372;2023-09-19T03:19:29;94974.75;;;14.13;92.52
6136;BME280;24008;42.664;23.372;2023-09-19T03:21:58;95066.22;;;14.66;92.81
6136;BME280;24008;42.664;23.372;2023-09-19T03:24:25;94893.00;;;13.58;93.21
6136;BME280;24008;42.664;23.372;2023-09-19T03:26:54;95035.63;;;14.47;93.80
6136;BME280;24008;42.664;23.372;2023-09-19T03:29:21;95052.69;;;14.56;93.91
6136;BME280;24008;42.664;23.372;2023-09-19T03:31:48;95054.91;;;14.51;94.33
6136;BME280;24008;42.664;23.372;2023-09-19T03:34:17;95057.34;;;14.52;94.33
6136;BME280;24008;42.664;23.372;2023-09-19T03:36:44;95038.44;;;14.27;94.22
6136;BME280;24008;42.664;23.372;2023-09-19T03:39:11;95008.81;;;14.07;94.43
6136;BME280;24008;42.664;23.372;2023-09-19T03:41:40;95038.44;;;14.27;94.72
6136;BME280;24008;42.664;23.372;2023-09-19T03:44:08;95061.97;;;14.40;95.61
6136;BME280;24008;42.664;23.372;2023-09-19T03:46:35;95066.81;;;14.44;95.63
6136;BME280;24008;42.664;23.372;2023-09-19T03:49:03;95031.31;;;14.13;95.01
6136;BME280;24008;42.664;23.372;2023-09-19T03:51:29;95077.09;;;14.44;95.71
6136;BME280;24008;42.664;23.372;2023-09-19T03:53:56;95060.34;;;14.39;95.76
6136;BME280;24008;42.664;23.372;2023-09-19T03:56:23;95074.66;;;14.42;95.31
6136;BME280;24008;42.664;23.372;2023-09-19T03:58:50;95084.81;;;14.44;95.24
6136;BME280;24008;42.664;23.372;2023-09-19T04:01:18;95080.63;;;14.43;95.16
6136;BME280;24008;42.664;23.372;2023-09-19T04:03:45;95072.53;;;14.37;95.04
6136;BME280;24008;42.664;23.372;2023-09-19T04:06:13;95059.63;;;14.21;95.41
6136;BME280;24008;42.664;23.372;2023-09-19T04:08:40;95106.66;;;14.39;95.45
6136;BME280;24008;42.664;23.372;2023-09-19T04:11:06;95054.47;;;14.21;95.87
6136;BME280;24008;42.664;23.372;2023-09-19T04:13:33;95094.59;;;14.40;95.58
6136;BME280;24008;42.664;23.372;2023-09-19T04:16:00;95051.25;;;14.19;95.42
6136;BME280;24008;42.664;23.372;2023-09-19T04:18:29;95038.06;;;14.14;95.01
6136;BME280;24008;42.664;23.372;2023-09-19T04:20:58;95046.09;;;14.11;94.96
6136;BME280;24008;42.664;23.372;2023-09-19T04:23:26;95109.56;;;14.45;95.14
6136;BME280;24008;42.664;23.372;2023-09-19T04:25:53;95098.97;;;14.48;94.80
6136;BME280;24008;42.664;23.372;2023-09-19T04:28:20;95078.16;;;14.33;94.92
6136;BME280;24008;42.664;23.372;2023-09-19T04:30:47;95096.56;;;14.46;94.99
6136;BME280;24008;42.664;23.372;2023-09-19T04:33:14;95091.56;;;14.45;95.29
6136;BME280;24008;42.664;23.372;2023-09-19T04:35:42;94960.13;;;13.63;95.29
6136;BME280;24008;42.664;23.372;2023-09-19T04:38:09;95069.16;;;14.37;95.18
6136;BME280;24008;42.664;23.372;2023-09-19T04:40:36;95086.28;;;14.54;94.50
6136;BME280;24008;42.664;23.372;2023-09-19T04:43:05;95084.88;;;14.60;93.79
6136;BME280;24008;42.664;23.372;2023-09-19T04:45:32;95086.47;;;14.61;93.27
6136;BME280;24008;42.664;23.372;2023-09-19T04:47:59;95084.69;;;14.53;93.65
6136;BME280;24008;42.664;23.372;2023-09-19T04:50:28;95081.28;;;14.53;94.15
6136;BME280;24008;42.664;23.372;2023-09-19T04:52:56;95080.03;;;14.57;94.22
6136;BME280;24008;42.664;23.372;2023-09-19T04:55:23;95075.53;;;14.59;94.17
6136;BME280;24008;42.664;23.372;2023-09-19T04:57:50;95076.66;;;14.64;93.49
6136;BME280;24008;42.664;23.372;2023-09-19T05:00:19;95021.47;;;14.43;93.13
6136;BME280;24008;42.664;23.372;2023-09-19T05:02:49;95077.22;;;14.84;92.19
6136;BME280;24008;42.664;23.372;2023-09-19T05:05:17;95038.56;;;14.68;91.58
6136;BME280;24008;42.664;23.372;2023-09-19T05:07:44;95066.28;;;14.98;91.45
6136;BME280;24008;42.664;23.372;2023-09-19T05:10:13;95018.16;;;14.74;90.82
6136;BME280;24008;42.664;23.372;2023-09-19T05:12:41;95023.47;;;14.89;90.79
6136;BME280;24008;42.664;23.372;2023-09-19T05:15:10;95072.59;;;15.44;89.75
6136;BME280;24008;42.664;23.372;2023-09-19T05:17:37;95044.53;;;15.49;87.92
6136;BME280;24008;42.664;23.372;2023-09-19T05:20:05;95073.34;;;15.85;86.63
6136;BME280;24008;42.664;23.372;2023-09-19T05:22:46;95063.94;;;16.09;85.01
6136;BME280;24008;42.664;23.372;2023-09-19T05:25:14;95056.34;;;16.15;83.58
6136;BME280;24008;42.664;23.372;2023-09-19T05:27:44;95064.06;;;16.54;81.96
6136;BME280;24008;42.664;23.372;2023-09-19T05:30:11;95022.78;;;16.54;80.47
6136;BME280;24008;42.664;23.372;2023-09-19T05:32:40;95048.72;;;16.92;78.36
6136;BME280;24008;42.664;23.372;2023-09-19T05:35:09;95058.66;;;17.03;77.67
6136;BME280;24008;42.664;23.372;2023-09-19T05:37:38;95064.81;;;17.25;77.25
6136;BME280;24008;42.664;23.372;2023-09-19T05:40:06;95050.50;;;17.52;75.85
6136;BME280;24008;42.664;23.372;2023-09-19T05:42:37;95034.53;;;17.71;74.26
6136;BME280;24008;42.664;23.372;2023-09-19T05:45:05;94991.13;;;17.81;72.42
6136;BME280;24008;42.664;23.372;2023-09-19T05:47:33;95056.22;;;18.29;71.03
6136;BME280;24008;42.664;23.372;2023-09-19T05:50:00;95056.03;;;18.16;70.84
6136;BME280;24008;42.664;23.372;2023-09-19T05:52:27;94894.91;;;16.98;71.55
6136;BME280;24008;42.664;23.372;2023-09-19T05:54:53;95050.50;;;17.89;72.30
6136;BME280;24008;42.664;23.372;2023-09-19T05:57:21;95027.25;;;17.75;72.40
6136;BME280;24008;42.664;23.372;2023-09-19T05:59:51;95043.28;;;17.99;72.52
6136;BME280;24008;42.664;23.372;2023-09-19T06:02:18;95024.41;;;17.99;72.13
6136;BME280;24008;42.664;23.372;2023-09-19T06:04:45;95046.91;;;18.49;71.10
6136;BME280;24008;42.664;23.372;2023-09-19T06:07:12;95045.25;;;18.78;69.01
6136;BME280;24008;42.664;23.372;2023-09-19T06:09:38;95006.47;;;18.63;68.35
6136;BME280;24008;42.664;23.372;2023-09-19T06:12:06;95008.34;;;18.90;67.56
6136;BME280;24008;42.664;23.372;2023-09-19T06:14:33;95041.53;;;19.72;65.68
6136;BME280;24008;42.664;23.372;2023-09-19T06:17:01;94988.97;;;19.57;64.59
6136;BME280;24008;42.664;23.372;2023-09-19T06:19:28;95039.25;;;20.25;63.26
6136;BME280;24008;42.664;23.372;2023-09-19T06:21:54;95041.06;;;20.72;61.41
6136;BME280;24008;42.664;23.372;2023-09-19T06:24:21;95014.34;;;21.04;60.15
6136;BME280;24008;42.664;23.372;2023-09-19T06:27:07;95015.97;;;21.65;57.43
6136;BME280;24008;42.664;23.372;2023-09-19T06:29:34;95042.38;;;21.75;56.29
6136;BME280;24008;42.664;23.372;2023-09-19T06:32:06;95023.16;;;21.10;57.55
6136;BME280;24008;42.664;23.372;2023-09-19T06:34:33;95007.31;;;20.85;59.09
6136;BME280;24008;42.664;23.372;2023-09-19T06:37:00;95040.22;;;21.59;58.11
6136;BME280;24008;42.664;23.372;2023-09-19T06:39:28;95039.91;;;22.26;55.44
6136;BME280;24008;42.664;23.372;2023-09-19T06:41:56;95033.47;;;22.42;54.56
6136;BME280;24008;42.664;23.372;2023-09-19T06:44:23;95014.75;;;21.87;55.30
6136;BME280;24008;42.664;23.372;2023-09-19T06:46:51;94987.81;;;21.35;56.33
6136;BME280;24008;42.664;23.372;2023-09-19T06:49:19;95042.38;;;21.75;57.47
6136;BME280;24008;42.664;23.372;2023-09-19T06:51:45;94975.19;;;21.45;55.79
6136;BME280;24008;42.664;23.372;2023-09-19T06:54:12;95007.97;;;21.66;56.10
6136;BME280;24008;42.664;23.372;2023-09-19T06:56:39;95056.19;;;21.82;55.13
6136;BME280;24008;42.664;23.372;2023-09-19T06:59:07;95050.19;;;21.75;55.31
6136;BME280;24008;42.664;23.372;2023-09-19T07:01:34;94960.38;;;21.13;55.43
6136;BME280;24008;42.664;23.372;2023-09-19T07:04:03;95009.59;;;21.21;55.74
6136;BME280;24008;42.664;23.372;2023-09-19T07:06:32;95059.81;;;21.41;56.14
6136;BME280;24008;42.664;23.372;2023-09-19T07:08:58;95031.22;;;21.35;56.43
6136;BME280;24008;42.664;23.372;2023-09-19T07:11:26;95051.03;;;21.49;56.18
6136;BME280;24008;42.664;23.372;2023-09-19T07:13:52;95057.22;;;21.54;56.26
6136;BME280;24008;42.664;23.372;2023-09-19T07:16:19;95059.63;;;21.56;56.27
6136;BME280;24008;42.664;23.372;2023-09-19T07:18:55;95062.41;;;21.54;56.34
6136;BME280;24008;42.664;23.372;2023-09-19T07:21:22;95064.59;;;21.51;56.65
6136;BME280;24008;42.664;23.372;2023-09-19T07:23:51;95060.19;;;21.38;57.16
6136;BME280;24008;42.664;23.372;2023-09-19T07:26:18;95032.56;;;21.11;57.91
6136;BME280;24008;42.664;23.372;2023-09-19T07:28:44;95057.19;;;21.41;57.65
6136;BME280;24008;42.664;23.372;2023-09-19T07:31:11;95053.22;;;21.45;57.45
6136;BME280;24008;42.664;23.372;2023-09-19T07:33:40;95031.59;;;21.51;57.00
6136;BME280;24008;42.664;23.372;2023-09-19T07:36:10;95032.41;;;21.59;57.11
6136;BME280;24008;42.664;23.372;2023-09-19T07:38:39;95053.00;;;21.80;57.15
6136;BME280;24008;42.664;23.372;2023-09-19T07:41:07;95052.00;;;21.81;56.68
6136;BME280;24008;42.664;23.372;2023-09-19T07:43:35;95036.81;;;21.58;55.96
6136;BME280;24008;42.664;23.372;2023-09-19T07:46:04;95053.00;;;21.80;56.87
6136;BME280;24008;42.664;23.372;2023-09-19T07:48:32;95054.41;;;21.76;56.10
6136;BME280;24008;42.664;23.372;2023-09-19T07:51:02;95041.38;;;21.49;55.83
6136;BME280;24008;42.664;23.372;2023-09-19T07:53:28;95033.81;;;21.41;56.36
6136;BME280;24008;42.664;23.372;2023-09-19T07:56:02;95056.03;;;21.37;57.38
6136;BME280;24008;42.664;23.372;2023-09-19T07:58:30;95064.00;;;21.42;57.63
6136;BME280;24008;42.664;23.372;2023-09-19T08:01:03;95056.81;;;21.58;57.96
6136;BME280;24008;42.664;23.372;2023-09-19T08:03:29;95054.81;;;21.79;56.66
6136;BME280;24008;42.664;23.372;2023-09-19T08:05:56;95037.38;;;22.06;55.98
6136;BME280;24008;42.664;23.372;2023-09-19T08:08:24;95054.69;;;22.45;54.97
6136;BME280;24008;42.664;23.372;2023-09-19T08:10:53;95056.94;;;22.86;53.31
6136;BME280;24008;42.664;23.372;2023-09-19T08:13:21;95051.38;;;23.14;53.80
6136;BME280;24008;42.664;23.372;2023-09-19T08:15:49;95014.22;;;23.19;50.98
6136;BME280;24008;42.664;23.372;2023-09-19T08:18:18;95014.09;;;23.39;50.46
6136;BME280;24008;42.664;23.372;2023-09-19T08:20:50;95044.03;;;23.61;50.12
6136;BME280;24008;42.664;23.372;2023-09-19T08:23:17;95032.47;;;23.50;50.55
6136;BME280;24008;42.664;23.372;2023-09-19T08:25:45;95036.59;;;23.64;49.84
6136;BME280;24008;42.664;23.372;2023-09-19T08:28:12;94991.63;;;23.38;49.49
6136;BME280;24008;42.664;23.372;2023-09-19T08:30:43;94961.16;;;23.31;49.36
6136;BME280;24008;42.664;23.372;2023-09-19T08:33:11;95028.81;;;24.01;48.46
6136;BME280;24008;42.664;23.372;2023-09-19T08:35:40;95021.44;;;24.34;48.21
6136;BME280;24008;42.664;23.372;2023-09-19T08:38:08;95010.16;;;24.52;47.30
6136;BME280;24008;42.664;23.372;2023-09-19T08:40:37;95036.47;;;24.87;46.18
6136;BME280;24008;42.664;23.372;2023-09-19T08:43:05;95016.16;;;24.71;46.01
6136;BME280;24008;42.664;23.372;2023-09-19T08:45:32;95031.19;;;24.75;46.28
6136;BME280;24008;42.664;23.372;2023-09-19T08:48:04;95033.63;;;25.07;45.93
6136;BME280;24008;42.664;23.372;2023-09-19T08:50:39;95046.41;;;25.27;45.26
6136;BME280;24008;42.664;23.372;2023-09-19T08:53:10;95024.19;;;25.18;45.79
6136;BME280;24008;42.664;23.372;2023-09-19T08:55:40;94929.16;;;24.52;45.89
6136;BME280;24008;42.664;23.372;2023-09-19T08:58:10;95030.84;;;25.32;45.59
6136;BME280;24008;42.664;23.372;2023-09-19T09:00:39;95003.25;;;24.88;45.59
6136;BME280;24008;42.664;23.372;2023-09-19T09:03:09;95004.47;;;24.73;46.36
6136;BME280;24008;42.664;23.372;2023-09-19T09:05:38;95002.19;;;24.77;45.97
6136;BME280;24008;42.664;23.372;2023-09-19T09:08:10;94851.78;;;23.55;46.80
6136;BME280;24008;42.664;23.372;2023-09-19T09:10:37;94992.13;;;24.32;47.18
6136;BME280;24008;42.664;23.372;2023-09-19T09:13:06;94988.00;;;24.25;46.64
6136;BME280;24008;42.664;23.372;2023-09-19T09:15:36;95011.13;;;24.39;46.62
6136;BME280;24008;42.664;23.372;2023-09-19T09:18:03;95009.50;;;24.20;47.14
6136;BME280;24008;42.664;23.372;2023-09-19T09:20:31;95018.63;;;23.93;47.68
6136;BME280;24008;42.664;23.372;2023-09-19T09:22:59;95010.53;;;24.01;48.05
6136;BME280;24008;42.664;23.372;2023-09-19T09:25:47;95004.03;;;24.47;47.37
6136;BME280;24008;42.664;23.372;2023-09-19T09:28:19;94953.94;;;24.50;46.69
6136;BME280;24008;42.664;23.372;2023-09-19T09:30:46;95005.66;;;25.07;45.62
6136;BME280;24008;42.664;23.372;2023-09-19T09:33:14;94965.00;;;24.93;45.34
6136;BME280;24008;42.664;23.372;2023-09-19T09:35:48;94782.28;;;24.20;45.27
6136;BME280;24008;42.664;23.372;2023-09-19T09:38:19;95001.66;;;25.81;44.00
6136;BME280;24008;42.664;23.372;2023-09-19T09:40:47;94960.09;;;25.73;43.84
6136;BME280;24008;42.664;23.372;2023-09-19T09:43:25;94944.75;;;25.65;43.26
6136;BME280;24008;42.664;23.372;2023-09-19T09:46:06;94982.41;;;25.64;44.12
6136;BME280;24008;42.664;23.372;2023-09-19T09:48:36;94941.16;;;25.36;44.36
6136;BME280;24008;42.664;23.372;2023-09-19T09:51:04;94930.69;;;25.25;44.32
6136;BME280;24008;42.664;23.372;2023-09-19T09:53:34;94979.19;;;25.51;44.93
6136;BME280;24008;42.664;23.372;2023-09-19T09:56:07;94926.63;;;25.29;44.83
6136;BME280;24008;42.664;23.372;2023-09-19T09:58:36;94924.56;;;25.42;44.90
6136;BME280;24008;42.664;23.372;2023-09-19T10:01:04;94964.41;;;26.03;43.60
6136;BME280;24008;42.664;23.372;2023-09-19T10:03:37;94966.97;;;26.26;43.23
6136;BME280;24008;42.664;23.372;2023-09-19T10:06:10;94945.66;;;26.23;43.71
6136;BME280;24008;42.664;23.372;2023-09-19T10:09:00;94801.72;;;25.12;43.70
6136;BME280;24008;42.664;23.372;2023-09-19T10:11:39;94968.69;;;26.32;43.38
6136;BME280;24008;42.664;23.372;2023-09-19T10:14:09;94969.84;;;26.13;43.58
6136;BME280;24008;42.664;23.372;2023-09-19T10:16:40;94971.34;;;25.86;43.32
6136;BME280;24008;42.664;23.372;2023-09-19T10:19:07;94974.69;;;25.69;43.40
6136;BME280;24008;42.664;23.372;2023-09-19T10:21:36;94947.06;;;25.08;44.54
6136;BME280;24008;42.664;23.372;2023-09-19T10:24:08;94910.88;;;24.64;45.62
6136;BME280;24008;42.664;23.372;2023-09-19T10:26:36;94932.19;;;24.79;45.59
6136;BME280;24008;42.664;23.372;2023-09-19T10:29:06;94955.44;;;24.87;45.72
6136;BME280;24008;42.664;23.372;2023-09-19T10:31:36;94956.94;;;24.95;46.17
6136;BME280;24008;42.664;23.372;2023-09-19T10:34:08;94944.50;;;24.90;46.54
6136;BME280;24008;42.664;23.372;2023-09-19T10:36:36;94944.78;;;25.00;46.78
6136;BME280;24008;42.664;23.372;2023-09-19T10:39:07;94947.69;;;24.92;46.30
6136;BME280;24008;42.664;23.372;2023-09-19T10:41:39;94942.97;;;25.12;46.05
6136;BME280;24008;42.664;23.372;2023-09-19T10:44:08;94935.25;;;25.18;45.79
6136;BME280;24008;42.664;23.372;2023-09-19T10:46:36;94942.91;;;25.42;45.74
6136;BME280;24008;42.664;23.372;2023-09-19T10:49:04;94929.00;;;25.54;45.88
6136;BME280;24008;42.664;23.372;2023-09-19T10:51:39;94942.34;;;25.75;44.45
6136;BME280;24008;42.664;23.372;2023-09-19T10:54:10;94896.59;;;25.43;44.15
6136;BME280;24008;42.664;23.372;2023-09-19T10:56:42;94937.66;;;25.77;44.33
6136;BME280;24008;42.664;23.372;2023-09-19T10:59:15;94901.69;;;25.38;44.62
6136;BME280;24008;42.664;23.372;2023-09-19T11:01:44;94925.28;;;25.61;44.42
6136;BME280;24008;42.664;23.372;2023-09-19T11:04:24;94886.56;;;25.05;44.50
6136;BME280;24008;42.664;23.372;2023-09-19T11:07:02;94917.72;;;25.06;45.01
6136;BME280;24008;42.664;23.372;2023-09-19T11:09:48;94928.56;;;25.10;45.86
6136;BME280;24008;42.664;23.372;2023-09-19T11:12:48;94925.47;;;25.25;45.17
6136;BME280;24008;42.664;23.372;2023-09-19T11:21:41;94909.66;;;25.08;46.73
6136;BME280;24008;42.664;23.372;2023-09-19T11:24:32;94939.47;;;25.30;46.25
6136;BME280;24008;42.664;23.372;2023-09-19T11:27:15;94897.59;;;25.42;46.66
6136;BME280;24008;42.664;23.372;2023-09-19T11:29:43;94884.63;;;25.59;45.19
6136;BME280;24008;42.664;23.372;2023-09-19T11:32:10;94902.44;;;25.97;44.69
6136;BME280;24008;42.664;23.372;2023-09-19T11:34:41;94788.53;;;25.31;44.17
6136;BME280;24008;42.664;23.372;2023-09-19T11:40:33;94878.91;;;25.85;43.75
6136;BME280;24008;42.664;23.372;2023-09-19T11:43:27;94871.56;;;25.70;44.26
6136;BME280;24008;42.664;23.372;2023-09-19T11:46:06;94867.97;;;25.88;44.22
6136;BME280;24008;42.664;23.372;2023-09-19T11:48:34;94877.50;;;26.06;44.40
6136;BME280;24008;42.664;23.372;2023-09-19T11:51:19;94873.25;;;26.16;43.68
6136;BME280;24008;42.664;23.372;2023-09-19T11:53:48;94864.25;;;26.12;43.45
6136;BME280;24008;42.664;23.372;2023-09-19T11:56:16;94844.28;;;25.95;44.06
6136;BME280;24008;42.664;23.372;2023-09-19T11:58:45;94859.63;;;26.03;43.65
6136;BME280;24008;42.664;23.372;2023-09-19T12:01:15;94831.59;;;25.63;44.37
6136;BME280;24008;42.664;23.372;2023-09-19T12:03:55;94812.84;;;25.43;44.80
6136;BME280;24008;42.664;23.372;2023-09-19T12:06:24;94844.56;;;25.70;45.76
6136;BME280;24008;42.664;23.372;2023-09-19T12:08:51;94848.41;;;25.79;45.56
6136;BME280;24008;42.664;23.372;2023-09-19T12:11:21;94859.50;;;25.98;46.04
6136;BME280;24008;42.664;23.372;2023-09-19T12:13:49;94852.69;;;25.97;45.96
6136;BME280;24008;42.664;23.372;2023-09-19T12:16:19;94806.38;;;25.86;45.34
6136;BME280;24008;42.664;23.372;2023-09-19T12:18:51;94838.38;;;26.16;45.35
6136;BME280;24008;42.664;23.372;2023-09-19T12:21:26;94715.59;;;25.34;43.60
6136;BME280;24008;42.664;23.372;2023-09-19T12:24:13;94841.94;;;26.10;44.22
6136;BME280;24008;42.664;23.372;2023-09-19T12:26:42;94792.53;;;25.73;44.29
6136;BME280;24008;42.664;23.372;2023-09-19T12:29:16;94822.28;;;25.67;44.52
6136;BME280;24008;42.664;23.372;2023-09-19T12:31:48;94831.72;;;25.68;44.69
6136;BME280;24008;42.664;23.372;2023-09-19T12:34:20;94824.44;;;25.70;44.52
6136;BME280;24008;42.664;23.372;2023-09-19T12:36:48;94789.94;;;25.50;44.58
6136;BME280;24008;42.664;23.372;2023-09-19T12:39:24;94794.63;;;25.48;44.72
6136;BME280;24008;42.664;23.372;2023-09-19T12:41:52;94760.44;;;25.26;45.15
6136;BME280;24008;42.664;23.372;2023-09-19T12:44:21;94814.41;;;25.56;45.28
6136;BME280;24008;42.664;23.372;2023-09-19T12:46:50;94758.19;;;25.06;45.58
6136;BME280;24008;42.664;23.372;2023-09-19T12:49:20;94779.69;;;25.08;46.00
6136;BME280;24008;42.664;23.372;2023-09-19T12:51:48;94811.50;;;25.17;46.13
6136;BME280;24008;42.664;23.372;2023-09-19T12:54:15;94810.84;;;25.10;46.91
6136;BME280;24008;42.664;23.372;2023-09-19T12:56:43;94811.16;;;25.02;46.77
6136;BME280;24008;42.664;23.372;2023-09-19T12:59:12;94813.34;;;25.05;46.64
6136;BME280;24008;42.664;23.372;2023-09-19T13:01:42;94812.31;;;25.06;47.24
6136;BME280;24008;42.664;23.372;2023-09-19T13:04:16;94784.13;;;24.96;46.66
6136;BME280;24008;42.664;23.372;2023-09-19T13:06:51;94799.56;;;25.21;46.49
6136;BME280;24008;42.664;23.372;2023-09-19T13:09:21;94799.09;;;25.24;47.19
6136;BME280;24008;42.664;23.372;2023-09-19T13:11:50;94773.06;;;25.18;46.41
6136;BME280;24008;42.664;23.372;2023-09-19T13:14:20;94761.16;;;25.10;46.61
6136;BME280;24008;42.664;23.372;2023-09-19T13:17:00;94786.94;;;25.30;46.67
6136;BME280;24008;42.664;23.372;2023-09-19T13:19:39;94702.13;;;24.79;46.62
6136;BME280;24008;42.664;23.372;2023-09-19T13:22:38;94792.31;;;25.11;46.26
6136;BME280;24008;42.664;23.372;2023-09-19T13:25:08;94769.78;;;24.87;46.95
6136;BME280;24008;42.664;23.372;2023-09-19T13:27:39;94756.47;;;24.89;46.67